LFBY/XDA METAR and TAF weather

Enter ICAO airport designator
Station Type Date Time Source
LFBY METAR 2024/04/15 09:30 UTC NOAA

LFBY 150930Z AUTO 27007KT 230V300 6000 // ////// 14/12 Q1025


Station Type Date Time Source
LFBY Decoded METAR 2024/04/15 09:30 UTC NOAA

Dax, France (LFBY) 43-41N 001-04W 32M
Apr 15, 2024 - 05:30 AM EDT / 2024.04.15 0930 UTC
Wind: from the W (270 degrees) at 8 MPH (7 KT) (direction variable):0
Visibility: 3 mile(s):0
Temperature: 57 F (14 C)
Dew Point: 53 F (12 C)
Relative Humidity: 87%
Pressure (altimeter): 30.27 in. Hg (1025 hPa)
ob: LFBY 150930Z AUTO 27007KT 230V300 6000 // ////// 14/12 Q1025
cycle: 9

Station Type Date Time Source
LFBY TAF UTC NOAA

Error!

Example: see airport list